Time;durP1;ratioP1;P1;durP2;ratioP2;P2;SDS_P1;SDS_P2;PMS_P1;PMS_P2;Temp;Humidity;BMP_temperature;BMP_pressure;BME280_temperature;BME280_humidity;BME280_pressure;Samples;Min_cycle;Max_cycle;Signal;HPM_P1;HPM_P2
2022/09/12 00:01:25;;;;;;;18.37;10.00;;;14.40;99.90;;;;;;4955304;28;20882;-53
2022/09/12 00:03:57;;;;;;;18.73;10.68;;;14.30;99.90;;;;;;4986734;28;20394;-53
2022/09/12 00:06:31;;;;;;;17.40;9.27;;;14.20;99.90;;;;;;4991627;28;20883;-53
2022/09/12 00:09:01;;;;;;;16.70;8.90;;;14.10;99.90;;;;;;4991323;28;20378;-53
2022/09/12 00:11:27;;;;;;;16.58;9.57;;;14.10;99.90;;;;;;4991986;28;20461;-53
2022/09/12 00:14:00;;;;;;;17.17;9.32;;;14.00;99.90;;;;;;4973518;28;20744;-53
2022/09/12 00:16:28;;;;;;;19.07;9.57;;;13.90;99.90;;;;;;4992140;28;20843;-54
2022/09/12 00:18:54;;;;;;;18.20;10.15;;;13.80;99.90;;;;;;4991010;28;20419;-53
2022/09/12 00:21:21;;;;;;;16.75;9.55;;;13.80;99.90;;;;;;4991664;28;20406;-53
2022/09/12 00:23:47;;;;;;;16.80;9.40;;;13.80;99.90;;;;;;4991114;28;20391;-52
2022/09/12 00:26:13;;;;;;;19.17;10.40;;;13.80;99.90;;;;;;4991602;28;20402;-53
2022/09/12 00:28:39;;;;;;;17.63;9.90;;;13.80;99.90;;;;;;4991501;28;20422;-53
2022/09/12 00:31:14;;;;;;;20.77;10.77;;;13.80;99.90;;;;;;4991290;28;20383;-53
2022/09/12 00:33:41;;;;;;;18.77;10.55;;;13.80;99.90;;;;;;4990883;28;20418;-53
2022/09/12 00:36:09;;;;;;;20.20;11.20;;;13.80;99.90;;;;;;4990807;28;20390;-53
2022/09/12 00:38:37;;;;;;;19.25;10.75;;;13.90;99.90;;;;;;4991507;28;20390;-53
2022/09/12 00:41:10;;;;;;;19.30;10.50;;;13.90;99.90;;;;;;4990544;28;20387;-53
2022/09/12 00:43:41;;;;;;;20.83;10.90;;;13.90;99.90;;;;;;4991051;28;20399;-53
2022/09/12 00:46:36;;;;;;;21.33;10.73;;;14.00;99.90;;;;;;4990489;28;20410;-53
2022/09/12 00:49:14;;;;;;;17.27;10.33;;;13.90;99.90;;;;;;4969039;28;20574;-53
2022/09/12 00:51:54;;;;;;;21.10;11.20;;;13.90;99.90;;;;;;4971803;28;20470;-52
2022/09/12 00:54:24;;;;;;;19.53;10.70;;;13.90;99.90;;;;;;4971867;28;20388;-52
2022/09/12 00:56:54;;;;;;;20.20;11.55;;;13.90;99.90;;;;;;4970622;28;20961;-53
2022/09/12 00:59:25;;;;;;;18.38;11.00;;;13.90;99.90;;;;;;4971772;28;20399;-53
2022/09/12 01:01:51;;;;;;;18.90;11.07;;;13.90;99.90;;;;;;4970888;28;20412;-53
2022/09/12 01:04:20;;;;;;;18.38;10.95;;;13.90;99.90;;;;;;4990212;28;20434;-53
2022/09/12 01:06:48;;;;;;;18.07;9.87;;;13.80;99.90;;;;;;4990412;28;20414;-53
2022/09/12 01:09:17;;;;;;;19.85;10.88;;;13.80;99.90;;;;;;4990584;28;20737;-53
2022/09/12 01:11:45;;;;;;;19.42;10.50;;;13.90;99.90;;;;;;4990481;28;20379;-53
2022/09/12 01:14:12;;;;;;;17.70;9.83;;;13.90;99.90;;;;;;4990508;28;20971;-52
2022/09/12 01:16:38;;;;;;;19.02;9.30;;;13.90;99.90;;;;;;4990760;28;20397;-53
2022/09/12 01:19:19;;;;;;;16.23;10.00;;;13.80;99.90;;;;;;4989803;28;20473;-53
2022/09/12 01:22:10;;;;;;;20.77;11.25;;;13.80;99.90;;;;;;4990136;28;20465;-53
2022/09/12 01:25:04;;;;;;;18.73;9.80;;;13.80;99.90;;;;;;4990687;28;20477;-52
2022/09/12 01:27:54;;;;;;;19.00;10.07;;;13.80;99.90;;;;;;4968510;28;20430;-53
2022/09/12 01:30:54;;;;;;;17.90;9.70;;;13.70;99.90;;;;;;4990478;28;20744;-53
2022/09/12 01:33:25;;;;;;;19.98;10.95;;;13.80;99.90;;;;;;4989909;28;20514;-53
2022/09/12 01:36:10;;;;;;;19.15;10.30;;;14.00;99.90;;;;;;4989774;28;20386;-53
2022/09/12 01:38:59;;;;;;;18.05;9.90;;;13.90;99.90;;;;;;4990737;28;20409;-53
2022/09/12 01:41:40;;;;;;;19.52;10.25;;;13.90;99.90;;;;;;4990547;28;20457;-53
2022/09/12 01:44:25;;;;;;;18.55;10.60;;;13.90;99.90;;;;;;4989608;28;20614;-53
2022/09/12 01:46:57;;;;;;;18.02;10.40;;;13.90;99.90;;;;;;4989591;28;20414;-53
2022/09/12 01:49:40;;;;;;;17.90;10.00;;;13.80;99.90;;;;;;4990157;28;20477;-52
2022/09/12 01:52:14;;;;;;;18.23;10.45;;;13.80;99.90;;;;;;4989339;28;20416;-53
2022/09/12 01:55:21;;;;;;;18.42;9.70;;;13.80;99.90;;;;;;4990268;28;20435;-53
2022/09/12 01:58:06;;;;;;;18.43;10.20;;;13.80;99.90;;;;;;4988853;28;20410;-53
2022/09/12 02:00:36;;;;;;;17.80;10.47;;;13.70;99.90;;;;;;4990060;28;20857;-53
2022/09/12 02:03:16;;;;;;;19.30;10.45;;;13.60;99.90;;;;;;4988853;28;20410;-54
2022/09/12 02:05:47;;;;;;;18.20;9.93;;;13.60;99.90;;;;;;4990228;28;20924;-54
2022/09/12 02:08:24;;;;;;;17.20;10.60;;;13.60;99.90;;;;;;4990023;28;20891;-53
2022/09/12 02:10:59;;;;;;;18.75;10.52;;;13.50;99.90;;;;;;4989187;28;20469;-55
2022/09/12 02:13:38;;;;;;;19.45;10.80;;;13.40;99.90;;;;;;4990205;28;20469;-54
2022/09/12 02:16:19;;;;;;;17.70;9.18;;;13.40;99.90;;;;;;4989824;28;20502;-54
2022/09/12 02:18:51;;;;;;;16.47;9.83;;;13.50;99.90;;;;;;4989694;28;20905;-54
2022/09/12 02:21:18;;;;;;;18.63;10.15;;;13.40;99.90;;;;;;4990131;28;20420;-53
2022/09/12 02:23:49;;;;;;;18.27;9.70;;;13.40;99.90;;;;;;4989848;28;20386;-53
2022/09/12 02:26:22;;;;;;;16.92;10.02;;;13.10;99.90;;;;;;4990145;28;20462;-54
2022/09/12 02:28:48;;;;;;;17.67;9.80;;;13.30;99.90;;;;;;4989117;28;20738;-53
2022/09/12 02:31:19;;;;;;;17.90;9.20;;;13.30;99.90;;;;;;4989628;28;20405;-53
2022/09/12 02:34:08;;;;;;;18.88;10.85;;;13.30;99.90;;;;;;4989117;28;21025;-53
2022/09/12 02:37:01;;;;;;;17.13;9.52;;;13.20;99.90;;;;;;4989681;28;20434;-53
2022/09/12 02:39:27;;;;;;;17.20;10.40;;;13.20;99.90;;;;;;4993744;28;20428;-53
2022/09/12 02:41:57;;;;;;;19.85;10.05;;;13.20;99.90;;;;;;4993057;28;20401;-53
2022/09/12 02:44:25;;;;;;;18.17;10.50;;;13.20;99.90;;;;;;4993618;28;20448;-53
2022/09/12 02:47:05;;;;;;;17.92;10.23;;;13.20;99.90;;;;;;4992653;28;20752;-53
2022/09/12 02:49:31;;;;;;;19.60;9.75;;;13.20;99.90;;;;;;4993342;28;20494;-53
2022/09/12 02:51:59;;;;;;;18.88;9.80;;;13.00;99.90;;;;;;4992819;28;20474;-53
2022/09/12 02:54:25;;;;;;;19.05;10.18;;;13.00;99.90;;;;;;4993471;28;20382;-53
2022/09/12 02:56:50;;;;;;;19.45;10.45;;;13.00;99.90;;;;;;4992289;28;20391;-53
2022/09/12 02:59:19;;;;;;;20.70;10.90;;;13.00;99.90;;;;;;4993233;28;20526;-53
2022/09/12 03:02:06;;;;;;;17.40;9.73;;;12.90;99.90;;;;;;4993005;28;20431;-53
2022/09/12 03:05:07;;;;;;;19.33;10.27;;;12.90;99.90;;;;;;4956469;28;20412;-53
2022/09/12 03:07:54;;;;;;;18.33;10.50;;;12.90;99.90;;;;;;4932038;28;20498;-54
2022/09/12 03:10:32;;;;;;;19.15;10.73;;;12.90;99.90;;;;;;4973813;28;20431;-53
2022/09/12 03:13:35;;;;;;;18.40;10.07;;;12.90;99.90;;;;;;4972805;28;20754;-53
2022/09/12 03:16:25;;;;;;;17.85;9.80;;;12.90;99.90;;;;;;4972819;28;20463;-53
2022/09/12 03:19:02;;;;;;;19.05;10.18;;;12.80;99.90;;;;;;4990603;28;20393;-53
2022/09/12 03:21:39;;;;;;;18.35;9.45;;;12.80;99.90;;;;;;4992721;28;20472;-53
2022/09/12 03:24:42;;;;;;;18.43;10.57;;;12.70;99.90;;;;;;4991906;28;20462;-54
2022/09/12 03:27:15;;;;;;;19.80;10.85;;;12.70;99.90;;;;;;4961578;28;20429;-53
2022/09/12 03:29:42;;;;;;;22.40;11.60;;;12.80;99.90;;;;;;4992842;28;20383;-54
2022/09/12 03:32:07;;;;;;;20.83;10.30;;;12.80;99.90;;;;;;4981881;28;20427;-53
2022/09/12 03:34:33;;;;;;;21.30;10.93;;;12.90;99.90;;;;;;4984789;28;20942;-53
2022/09/12 03:36:59;;;;;;;19.00;11.38;;;12.90;99.90;;;;;;4983106;28;20406;-53
2022/09/12 03:39:25;;;;;;;21.53;10.97;;;12.90;99.90;;;;;;4992207;28;20856;-53
2022/09/12 03:41:52;;;;;;;21.98;11.90;;;12.90;99.90;;;;;;4987451;28;20494;-53
2022/09/12 03:44:18;;;;;;;21.00;10.50;;;12.80;99.90;;;;;;4972840;28;20388;-53
2022/09/12 03:46:44;;;;;;;19.13;11.20;;;12.70;99.90;;;;;;4972950;28;20412;-53
2022/09/12 03:49:11;;;;;;;17.55;10.00;;;12.70;99.90;;;;;;4975600;28;20418;-53
2022/09/12 03:51:38;;;;;;;21.50;9.93;;;12.70;99.90;;;;;;4981549;28;20419;-53
2022/09/12 03:54:03;;;;;;;18.23;9.50;;;12.50;99.90;;;;;;4981729;28;21229;-53
2022/09/12 03:56:29;;;;;;;19.17;10.18;;;12.50;99.90;;;;;;4982376;28;20435;-53
2022/09/12 03:58:55;;;;;;;21.33;10.53;;;12.40;99.90;;;;;;4980116;28;20395;-53
2022/09/12 04:01:21;;;;;;;21.65;11.25;;;12.40;99.90;;;;;;4980802;28;20762;-53
2022/09/12 04:03:48;;;;;;;19.38;10.35;;;12.50;99.90;;;;;;4980856;28;20382;-53
2022/09/12 04:06:17;;;;;;;20.45;10.75;;;12.50;99.90;;;;;;4982325;28;20774;-54
2022/09/12 04:08:43;;;;;;;20.45;11.60;;;12.50;99.90;;;;;;4982076;28;20736;-53
2022/09/12 04:11:12;;;;;;;21.35;11.02;;;12.50;99.90;;;;;;4981604;28;20407;-53
2022/09/12 04:13:38;;;;;;;21.33;11.33;;;12.40;99.90;;;;;;4979680;28;20384;-53
2022/09/12 04:16:06;;;;;;;20.98;10.75;;;12.50;99.90;;;;;;4982024;28;20406;-53
2022/09/12 04:18:32;;;;;;;21.65;11.55;;;12.40;99.90;;;;;;4982315;28;20485;-53
2022/09/12 04:20:57;;;;;;;22.88;11.45;;;12.40;99.90;;;;;;4974048;28;20861;-53
2022/09/12 04:23:23;;;;;;;22.57;11.63;;;12.50;99.90;;;;;;4981029;28;20381;-53
2022/09/12 04:25:53;;;;;;;23.42;12.52;;;12.60;99.90;;;;;;4971205;28;20791;-53
2022/09/12 04:28:19;;;;;;;20.88;11.65;;;12.60;99.90;;;;;;4972336;28;20404;-53
2022/09/12 04:30:44;;;;;;;23.67;11.77;;;12.50;99.90;;;;;;4972070;28;20411;-53
2022/09/12 04:33:10;;;;;;;23.00;12.00;;;12.60;99.90;;;;;;4990427;28;20422;-53
2022/09/12 04:35:36;;;;;;;27.50;13.90;;;12.50;99.90;;;;;;4991588;28;20741;-53
2022/09/12 04:38:01;;;;;;;27.95;13.75;;;12.60;99.90;;;;;;4990707;28;20425;-54
2022/09/12 04:40:29;;;;;;;21.17;11.17;;;12.40;99.90;;;;;;4989654;28;20386;-53
2022/09/12 04:42:55;;;;;;;21.23;11.45;;;12.40;99.90;;;;;;4971160;28;20396;-53
2022/09/12 04:45:21;;;;;;;20.40;11.40;;;12.30;99.90;;;;;;4971991;28;20380;-53
2022/09/12 04:47:47;;;;;;;18.73;10.63;;;12.30;99.90;;;;;;4980715;28;20434;-53
2022/09/12 04:50:13;;;;;;;22.05;11.45;;;12.40;99.90;;;;;;4973434;28;20888;-53
2022/09/12 04:52:39;;;;;;;24.02;11.27;;;12.40;99.90;;;;;;4991015;28;20957;-54
2022/09/12 04:55:06;;;;;;;23.48;10.98;;;12.60;99.90;;;;;;4990481;28;20448;-53
2022/09/12 04:57:32;;;;;;;20.70;11.38;;;12.60;99.90;;;;;;4972615;28;20426;-53
2022/09/12 04:59:58;;;;;;;23.10;11.40;;;12.60;99.90;;;;;;4973624;28;20412;-53
2022/09/12 05:02:24;;;;;;;24.60;12.90;;;12.50;99.90;;;;;;4977628;28;20410;-54
2022/09/12 05:04:51;;;;;;;23.50;11.73;;;12.40;99.90;;;;;;4984726;28;20408;-54
2022/09/12 05:07:18;;;;;;;20.13;10.55;;;12.40;99.90;;;;;;4961688;28;20422;-53
2022/09/12 05:09:44;;;;;;;21.60;10.13;;;12.40;99.90;;;;;;4987150;28;20443;-53
2022/09/12 05:12:10;;;;;;;20.53;11.03;;;12.40;99.90;;;;;;4979570;28;20391;-54
2022/09/12 05:14:35;;;;;;;23.13;11.60;;;12.40;99.90;;;;;;4980988;28;20484;-54
2022/09/12 05:17:02;;;;;;;23.40;11.63;;;12.40;99.90;;;;;;4971849;28;20513;-54
2022/09/12 05:19:29;;;;;;;20.65;10.88;;;12.70;99.90;;;;;;4976951;28;20390;-53
2022/09/12 05:21:55;;;;;;;21.38;11.48;;;12.70;99.90;;;;;;4986542;28;20493;-54
2022/09/12 05:24:21;;;;;;;18.70;9.90;;;12.80;99.90;;;;;;4981312;28;20428;-53
2022/09/12 05:26:47;;;;;;;18.77;9.98;;;12.80;99.90;;;;;;4980946;28;20420;-54
2022/09/12 05:29:12;;;;;;;20.10;10.10;;;12.70;99.90;;;;;;4978066;28;20403;-54
2022/09/12 05:31:38;;;;;;;21.08;10.88;;;12.70;99.90;;;;;;4980436;28;20914;-54
2022/09/12 05:34:05;;;;;;;19.30;10.20;;;12.70;99.90;;;;;;4987274;28;20453;-54
2022/09/12 05:36:32;;;;;;;19.70;10.90;;;12.80;99.90;;;;;;4990578;28;20580;-53
2022/09/12 05:38:59;;;;;;;19.67;10.90;;;12.90;99.90;;;;;;4985186;28;20808;-54
2022/09/12 05:41:31;;;;;;;19.15;11.23;;;13.00;99.90;;;;;;4971684;28;20811;-54
2022/09/12 05:44:02;;;;;;;20.20;10.00;;;13.10;99.90;;;;;;4969461;28;20396;-54
2022/09/12 05:46:30;;;;;;;20.35;11.15;;;13.20;99.90;;;;;;4978357;28;20473;-59
2022/09/12 05:49:01;;;;;;;19.30;10.30;;;12.90;99.90;;;;;;4976423;28;20485;-54
2022/09/12 05:51:28;;;;;;;18.92;10.75;;;13.40;99.90;;;;;;4981411;28;21818;-55
2022/09/12 05:53:56;;;;;;;18.92;10.55;;;13.60;99.90;;;;;;4970495;28;20846;-54
2022/09/12 05:56:27;;;;;;;23.57;10.80;;;14.30;99.90;;;;;;4971626;28;20401;-53
2022/09/12 05:59:04;;;;;;;18.15;10.20;;;14.70;99.90;;;;;;4981714;28;20415;-54
2022/09/12 06:01:32;;;;;;;18.67;10.23;;;15.00;99.90;;;;;;4978166;28;20480;-53
2022/09/12 06:03:59;;;;;;;19.53;10.10;;;15.80;99.90;;;;;;4978391;28;20442;-55
2022/09/12 06:06:26;;;;;;;13.80;7.90;;;17.10;1.00;;;;;;4982450;28;20503;-54
2022/09/12 06:08:55;;;;;;;14.15;8.50;;;18.50;99.90;;;;;;4981359;28;20393;-54
2022/09/12 06:11:24;;;;;;;16.92;8.73;;;19.60;1.00;;;;;;4978655;28;20423;-54
2022/09/12 06:13:50;;;;;;;16.00;8.60;;;20.60;1.00;;;;;;4984372;28;20481;-54
2022/09/12 06:16:19;;;;;;;15.13;8.80;;;21.30;93.00;;;;;;4975933;28;20483;-55
2022/09/12 06:18:53;;;;;;;15.20;9.18;;;21.70;1.00;;;;;;4982780;28;20384;-54
2022/09/12 06:21:19;;;;;;;14.80;8.85;;;22.10;1.00;;;;;;4978962;28;20432;-52
2022/09/12 06:23:45;;;;;;;16.33;9.43;;;21.80;1.00;;;;;;5004174;28;20398;-55
2022/09/12 06:26:12;;;;;;;17.10;8.70;;;21.80;1.00;;;;;;4992641;28;20480;-52
2022/09/12 06:28:39;;;;;;;17.33;8.50;;;21.80;1.00;;;;;;4977455;28;20408;-52
2022/09/12 06:31:08;;;;;;;18.37;8.30;;;22.00;1.00;;;;;;4981447;28;20437;-52
2022/09/12 06:33:36;;;;;;;15.85;8.90;;;22.30;1.00;;;;;;4984362;28;20820;-53
2022/09/12 06:36:14;;;;;;;15.30;8.80;;;22.90;1.00;;;;;;4975287;28;20981;-53
2022/09/12 06:38:40;;;;;;;14.88;8.00;;;22.80;1.00;;;;;;4973926;28;20404;-54
2022/09/12 06:41:09;;;;;;;14.65;9.20;;;23.00;1.00;;;;;;5011447;28;20470;-54
2022/09/12 06:43:35;;;;;;;13.93;8.25;;;23.30;1.00;;;;;;5013028;28;20847;-54
2022/09/12 06:46:01;;;;;;;15.10;8.60;;;23.70;1.00;;;;;;5012101;28;20385;-54
2022/09/12 06:48:28;;;;;;;20.92;9.10;;;23.70;1.00;;;;;;5012885;28;20847;-53
2022/09/12 06:51:16;;;;;;;14.30;8.48;;;24.30;1.00;;;;;;5011044;28;20496;-54
2022/09/12 06:53:43;;;;;;;14.95;8.43;;;24.90;1.00;;;;;;5012940;28;20831;-54
2022/09/12 06:56:18;;;;;;;14.65;8.10;;;26.00;99.90;;;;;;5011857;28;20993;-53
2022/09/12 06:58:44;;;;;;;16.63;9.30;;;25.80;99.90;;;;;;5012798;28;20484;-53
2022/09/12 07:01:19;;;;;;;15.32;8.52;;;25.80;99.90;;;;;;4994109;28;20389;-53
2022/09/12 07:03:53;;;;;;;14.03;8.40;;;25.50;99.90;;;;;;5012574;28;20894;-53
2022/09/12 07:06:24;;;;;;;14.10;9.10;;;25.40;99.90;;;;;;5012170;28;20427;-53
2022/09/12 07:08:50;;;;;;;14.47;8.57;;;25.80;99.90;;;;;;5011834;28;20385;-53
2022/09/12 07:11:29;;;;;;;14.57;8.50;;;26.00;99.90;;;;;;5012396;28;20881;-53
2022/09/12 07:13:57;;;;;;;16.73;9.00;;;26.50;99.90;;;;;;4985070;28;20406;-53
2022/09/12 07:16:22;;;;;;;14.47;8.30;;;26.60;99.90;;;;;;4992530;28;20445;-53
2022/09/12 07:18:53;;;;;;;14.40;9.25;;;26.50;99.90;;;;;;4992475;28;20387;-53
2022/09/12 07:21:19;;;;;;;13.67;8.60;;;25.40;99.90;;;;;;4992388;28;20809;-53
2022/09/12 07:23:46;;;;;;;16.45;8.57;;;25.70;99.90;;;;;;4974016;28;20481;-54
2022/09/12 07:26:13;;;;;;;16.35;9.43;;;26.70;99.90;;;;;;4991562;28;20411;-54
2022/09/12 07:28:39;;;;;;;14.80;10.00;;;27.70;99.90;;;;;;4992447;28;20474;-54
2022/09/12 07:31:08;;;;;;;13.43;9.90;;;27.90;99.90;;;;;;4991661;28;20399;-54
2022/09/12 07:33:35;;;;;;;14.50;9.80;;;28.20;99.90;;;;;;4992754;28;20420;-54
2022/09/12 07:36:03;;;;;;;15.50;11.07;;;29.10;99.90;;;;;;4991733;28;20425;-54
2022/09/12 07:38:29;;;;;;;14.43;10.00;;;29.50;99.90;;;;;;4992151;28;20394;-54
2022/09/12 07:40:54;;;;;;;15.18;11.05;;;28.50;99.90;;;;;;4991581;28;20378;-53
2022/09/12 07:43:20;;;;;;;14.37;11.10;;;28.30;99.90;;;;;;4992487;28;20445;-54
2022/09/12 07:45:46;;;;;;;15.43;10.83;;;28.30;99.90;;;;;;4992016;28;20401;-53
2022/09/12 07:48:12;;;;;;;15.53;10.30;;;28.50;99.90;;;;;;4991689;28;20539;-53
2022/09/12 07:50:38;;;;;;;14.40;10.90;;;29.70;99.90;;;;;;4992450;28;20918;-53
2022/09/12 07:53:05;;;;;;;15.75;12.00;;;29.30;99.90;;;;;;4991203;28;20402;-53
2022/09/12 07:55:31;;;;;;;14.50;11.50;;;29.40;99.90;;;;;;4992301;28;20445;-53
2022/09/12 07:57:57;;;;;;;15.55;11.73;;;30.00;99.90;;;;;;4991085;28;20462;-53
2022/09/12 08:00:22;;;;;;;16.27;11.77;;;30.40;99.90;;;;;;4991986;28;20409;-53
2022/09/12 08:02:52;;;;;;;16.67;13.40;;;30.40;99.90;;;;;;4991751;28;20414;-54
2022/09/12 08:05:19;;;;;;;13.75;12.30;;;31.30;99.90;;;;;;4992030;28;20497;-54
2022/09/12 08:07:45;;;;;;;14.40;12.15;;;31.70;99.90;;;;;;4991613;28;20406;-54
2022/09/12 08:10:11;;;;;;;13.90;7.70;;;31.70;99.90;;;;;;4990963;28;20403;-54
2022/09/12 08:12:37;;;;;;;14.32;7.82;;;31.30;99.90;;;;;;4992134;28;20383;-54
2022/09/12 08:15:03;;;;;;;13.05;7.80;;;31.20;99.90;;;;;;5009093;28;20397;-54
2022/09/12 08:17:28;;;;;;;14.73;8.73;;;31.70;99.90;;;;;;5011598;28;20380;-54
2022/09/12 08:19:55;;;;;;;13.40;8.68;;;32.80;99.90;;;;;;5010572;28;20447;-53
2022/09/12 08:22:21;;;;;;;14.10;8.70;;;33.60;99.90;;;;;;5010883;28;20385;-54
2022/09/12 08:24:47;;;;;;;12.80;8.00;;;33.50;99.90;;;;;;4993630;28;20420;-54
2022/09/12 08:27:13;;;;;;;13.25;7.80;;;33.20;99.90;;;;;;5010619;28;20452;-54
2022/09/12 08:29:39;;;;;;;13.25;8.52;;;32.80;99.90;;;;;;5011502;28;20490;-54
2022/09/12 08:32:05;;;;;;;15.20;12.70;;;32.50;99.90;;;;;;5010305;28;20499;-54
2022/09/12 08:34:30;;;;;;;13.50;11.18;;;32.70;99.90;;;;;;5010707;28;20744;-53
2022/09/12 08:36:56;;;;;;;13.10;9.83;;;33.00;99.90;;;;;;5009866;28;20447;-54
2022/09/12 08:39:23;;;;;;;12.30;8.13;;;33.20;99.90;;;;;;5010785;28;20385;-54
2022/09/12 08:42:04;;;;;;;12.43;7.30;;;33.10;99.90;;;;;;5010351;28;21070;-54
2022/09/12 08:44:52;;;;;;;10.50;7.10;;;32.60;99.90;;;;;;5010666;28;20377;-54
2022/09/12 08:47:26;;;;;;;14.63;11.50;;;32.70;99.90;;;;;;5010811;28;20417;-54
2022/09/12 08:50:01;;;;;;;10.57;9.30;;;31.80;99.90;;;;;;5010126;28;20487;-54
2022/09/12 08:52:35;;;;;;;11.85;10.10;;;32.00;99.90;;;;;;5010678;28;20925;-54
2022/09/12 08:55:05;;;;;;;11.02;6.65;;;32.70;99.90;;;;;;5009446;28;20915;-54
2022/09/12 08:57:32;;;;;;;10.43;6.43;;;32.80;99.90;;;;;;5010549;28;20417;-54
2022/09/12 08:59:58;;;;;;;11.30;6.55;;;33.50;99.90;;;;;;5009593;28;20541;-54
2022/09/12 09:02:45;;;;;;;9.88;5.60;;;33.30;99.90;;;;;;5010516;28;20538;-54
2022/09/12 09:05:28;;;;;;;8.70;5.25;;;34.20;99.90;;;;;;5009752;28;20484;-54
2022/09/12 09:08:29;;;;;;;9.48;5.10;;;35.20;99.90;;;;;;5009615;28;20416;-54
2022/09/12 09:11:06;;;;;;;10.38;5.20;;;35.20;99.90;;;;;;5009632;28;20397;-54
2022/09/12 09:16:54;;;;;;;9.30;7.97;;;33.80;99.90;;;;;;4930295;28;20465;-53
2022/09/12 09:19:31;;;;;;;9.70;7.80;;;32.70;99.90;;;;;;4990815;28;20410;-54
2022/09/12 09:22:20;;;;;;;8.40;6.75;;;32.80;99.90;;;;;;4989726;28;20415;-54
2022/09/12 09:24:54;;;;;;;9.50;6.90;;;33.00;99.90;;;;;;4990331;28;20401;-53
2022/09/12 09:27:44;;;;;;;8.90;6.90;;;33.50;99.90;;;;;;4990391;28;20411;-54
2022/09/12 09:30:18;;;;;;;8.33;7.10;;;34.20;99.90;;;;;;4989545;28;20394;-54
2022/09/12 09:32:49;;;;;;;8.00;5.90;;;33.20;99.90;;;;;;4989858;28;20465;-53
2022/09/12 09:35:17;;;;;;;7.90;6.10;;;32.80;99.90;;;;;;4989966;28;20390;-54
2022/09/12 09:37:57;;;;;;;7.88;5.88;;;32.50;99.90;;;;;;4990266;28;20541;-54
2022/09/12 09:40:25;;;;;;;7.40;5.55;;;33.40;99.90;;;;;;4989939;28;20383;-54
2022/09/12 09:43:12;;;;;;;9.30;6.40;;;33.10;99.90;;;;;;4989750;28;20460;-54
2022/09/12 09:45:40;;;;;;;7.82;5.80;;;33.10;99.90;;;;;;4990366;28;20397;-54
2022/09/12 09:48:23;;;;;;;8.50;6.90;;;32.90;99.90;;;;;;4989029;28;20410;-54
2022/09/12 09:50:49;;;;;;;7.70;5.68;;;32.30;99.90;;;;;;4990214;28;20445;-53
2022/09/12 09:53:33;;;;;;;7.30;5.50;;;32.80;99.90;;;;;;4989598;28;20445;-54
2022/09/12 09:56:04;;;;;;;7.95;5.80;;;32.90;99.90;;;;;;4989318;28;20405;-54
2022/09/12 09:58:34;;;;;;;8.10;6.30;;;34.00;99.90;;;;;;4989998;28;20429;-54
2022/09/12 10:01:02;;;;;;;8.00;5.67;;;34.10;99.90;;;;;;4989357;28;20464;-53
2022/09/12 10:03:37;;;;;;;9.10;5.90;;;34.30;99.90;;;;;;4990102;28;20545;-54
2022/09/12 10:06:19;;;;;;;9.70;6.40;;;34.40;99.90;;;;;;4989096;28;20452;-54
2022/09/12 10:08:47;;;;;;;7.78;3.50;;;34.40;99.90;;;;;;4990144;28;20483;-54
2022/09/12 10:11:19;;;;;;;7.28;3.53;;;34.20;99.90;;;;;;4989011;28;21018;-54
2022/09/12 10:13:57;;;;;;;7.43;3.70;;;34.10;99.90;;;;;;4996824;28;20385;-54
2022/09/12 10:16:46;;;;;;;10.40;6.00;;;33.20;99.90;;;;;;5009746;28;20866;-54
2022/09/12 10:19:23;;;;;;;8.30;5.70;;;32.90;99.90;;;;;;5008628;28;20402;-54
2022/09/12 10:21:54;;;;;;;8.50;6.20;;;33.90;99.90;;;;;;5009794;28;20437;-54
2022/09/12 10:24:42;;;;;;;8.00;5.63;;;34.00;99.90;;;;;;5009770;28;20865;-54
2022/09/12 10:27:17;;;;;;;7.65;5.50;;;33.50;99.90;;;;;;5008520;28;20419;-54
2022/09/12 10:30:16;;;;;;;8.20;5.20;;;33.50;99.90;;;;;;5009121;28;20812;-54
2022/09/12 10:32:50;;;;;;;8.85;5.53;;;34.10;99.90;;;;;;5009285;28;20409;-54
2022/09/12 10:35:19;;;;;;;8.00;5.10;;;33.90;99.90;;;;;;5008858;28;20392;-54
2022/09/12 10:38:04;;;;;;;8.40;5.10;;;33.80;99.90;;;;;;5008931;28;20823;-54
2022/09/12 10:40:42;;;;;;;7.30;5.43;;;34.10;99.90;;;;;;5009253;28;20460;-54
2022/09/12 10:43:26;;;;;;;7.50;5.63;;;34.10;99.90;;;;;;5008324;28;20391;-54
2022/09/12 10:45:57;;;;;;;7.32;5.10;;;33.90;99.90;;;;;;5008867;28;20388;-54
2022/09/12 10:48:30;;;;;;;7.90;5.22;;;33.30;99.90;;;;;;5009092;28;20455;-54
2022/09/12 10:50:59;;;;;;;7.43;5.68;;;32.50;99.90;;;;;;5008805;28;20937;-54
2022/09/12 10:53:39;;;;;;;8.20;6.00;;;32.10;99.90;;;;;;5008928;28;20863;-54
2022/09/12 10:56:12;;;;;;;11.35;7.15;;;31.70;99.90;;;;;;5008414;28;20471;-54
2022/09/12 10:58:55;;;;;;;8.65;6.65;;;31.50;99.90;;;;;;5010391;28;20404;-54
2022/09/12 11:01:30;;;;;;;8.20;6.05;;;31.70;99.90;;;;;;5012669;28;20454;-54
2022/09/12 11:04:23;;;;;;;7.45;5.57;;;31.20;99.90;;;;;;5011950;28;20386;-54
2022/09/12 11:07:03;;;;;;;7.43;5.53;;;31.80;99.90;;;;;;5012612;28;20471;-54
2022/09/12 11:09:47;;;;;;;8.10;6.50;;;31.90;99.90;;;;;;5012538;28;20475;-54
2022/09/12 11:12:37;;;;;;;7.43;5.40;;;31.80;99.90;;;;;;5011552;28;21033;-54
2022/09/12 11:15:23;;;;;;;7.95;6.10;;;31.40;99.90;;;;;;4993378;28;20390;-54
2022/09/12 11:17:57;;;;;;;7.80;5.70;;;31.60;99.90;;;;;;4992702;28;20394;-54
2022/09/12 11:20:46;;;;;;;8.40;6.20;;;31.50;99.90;;;;;;4991533;28;20950;-54
2022/09/12 11:23:23;;;;;;;7.50;5.23;;;30.80;99.90;;;;;;4991559;28;21000;-54
2022/09/12 11:26:01;;;;;;;8.00;6.00;;;30.30;99.90;;;;;;4992725;28;20452;-54
2022/09/12 11:28:55;;;;;;;7.60;6.40;;;29.80;99.90;;;;;;4992485;28;20460;-54
2022/09/12 11:31:39;;;;;;;7.90;6.57;;;29.30;99.90;;;;;;4992933;28;20406;-54
2022/09/12 11:34:09;;;;;;;7.38;6.32;;;29.10;99.90;;;;;;4991421;28;20419;-54
2022/09/12 11:36:41;;;;;;;8.10;6.10;;;29.00;99.90;;;;;;4992669;28;20386;-54
2022/09/12 11:39:39;;;;;;;7.32;6.20;;;28.70;99.90;;;;;;4991253;28;20433;-54
2022/09/12 11:42:10;;;;;;;15.20;6.72;;;28.80;99.90;;;;;;4975954;28;20465;-54
2022/09/12 11:44:41;;;;;;;7.70;6.35;;;29.10;99.90;;;;;;4992348;28;20379;-54
2022/09/12 11:47:11;;;;;;;7.78;6.50;;;29.20;99.90;;;;;;4991354;28;20749;-54
2022/09/12 11:49:42;;;;;;;7.30;6.32;;;28.70;99.90;;;;;;4991060;28;20398;-54
2022/09/12 11:52:23;;;;;;;8.18;6.30;;;28.10;99.90;;;;;;4991405;28;20391;-54
2022/09/12 11:55:23;;;;;;;7.50;6.70;;;27.90;99.90;;;;;;4992106;28;20437;-54
2022/09/12 11:57:57;;;;;;;7.20;6.03;;;28.10;99.90;;;;;;4991928;28;20398;-54
2022/09/12 12:00:39;;;;;;;7.97;6.78;;;28.20;99.90;;;;;;4992063;28;20395;-54
2022/09/12 12:03:15;;;;;;;8.32;6.35;;;28.10;99.90;;;;;;4990901;28;20410;-54
2022/09/12 12:06:04;;;;;;;7.13;6.00;;;27.90;99.90;;;;;;4991918;28;20490;-53
2022/09/12 12:08:31;;;;;;;6.60;5.60;;;28.10;99.90;;;;;;4991851;28;20474;-54
2022/09/12 12:10:59;;;;;;;7.95;6.32;;;28.20;99.90;;;;;;4990453;28;20387;-54
2022/09/12 12:13:38;;;;;;;7.20;6.00;;;28.20;99.90;;;;;;4996371;28;20751;-53
2022/09/12 12:16:28;;;;;;;7.50;6.00;;;27.90;99.90;;;;;;5010726;28;20387;-54
2022/09/12 12:19:02;;;;;;;7.80;6.40;;;27.80;99.90;;;;;;5001148;28;20401;-54
2022/09/12 12:21:28;;;;;;;8.10;6.97;;;27.90;99.90;;;;;;5011410;28;20467;-54
2022/09/12 12:24:08;;;;;;;7.60;6.10;;;28.00;99.90;;;;;;5010937;28;20460;-54
2022/09/12 12:26:40;;;;;;;6.50;5.63;;;28.10;99.90;;;;;;5011196;28;20571;-54
2022/09/12 12:29:10;;;;;;;6.80;6.10;;;27.90;99.90;;;;;;5010187;28;20471;-54
2022/09/12 12:32:00;;;;;;;7.00;5.65;;;27.80;99.90;;;;;;5011042;28;20882;-54
2022/09/12 12:34:34;;;;;;;6.60;5.80;;;28.10;99.90;;;;;;5011305;28;20411;-54
2022/09/12 12:37:17;;;;;;;6.97;6.00;;;28.20;99.90;;;;;;5010416;28;20423;-54
2022/09/12 12:39:46;;;;;;;8.67;5.37;;;28.30;99.90;;;;;;5010985;28;20393;-54
2022/09/12 12:42:34;;;;;;;6.30;5.32;;;28.30;99.90;;;;;;5010091;28;20414;-54
2022/09/12 12:45:00;;;;;;;6.60;5.20;;;28.10;99.90;;;;;;5009818;28;20466;-54
2022/09/12 12:47:32;;;;;;;6.80;5.05;;;28.00;99.90;;;;;;5010686;28;20495;-54
2022/09/12 12:50:20;;;;;;;6.72;5.65;;;28.10;99.90;;;;;;5010074;28;20407;-54
2022/09/12 12:52:48;;;;;;;6.85;5.65;;;28.10;99.90;;;;;;4997874;28;20404;-53
2022/09/12 12:55:30;;;;;;;7.00;5.65;;;28.30;99.90;;;;;;5009986;28;20393;-54
2022/09/12 12:57:57;;;;;;;7.20;5.90;;;28.30;99.90;;;;;;5010219;28;20388;-54
2022/09/12 13:00:23;;;;;;;6.32;5.10;;;28.40;99.90;;;;;;5010224;28;20393;-54
2022/09/12 13:03:00;;;;;;;6.60;5.68;;;28.10;99.90;;;;;;5010895;28;20424;-54
2022/09/12 13:05:28;;;;;;;6.30;5.50;;;28.00;99.90;;;;;;5010518;28;20408;-54
2022/09/12 13:07:58;;;;;;;6.90;5.97;;;27.70;99.90;;;;;;5010132;28;20405;-54